createdAt,value
2023-03-29T00:00:41.433Z,4.40
2023-03-29T00:01:41.462Z,4.47
2023-03-29T00:02:41.505Z,4.33
2023-03-29T00:03:41.475Z,4.44
2023-03-29T00:04:41.483Z,4.46
2023-03-29T00:05:41.404Z,4.54
2023-03-29T00:06:41.401Z,4.29
2023-03-29T00:07:41.359Z,4.29
2023-03-29T00:08:41.349Z,4.34
2023-03-29T00:09:41.335Z,4.36
2023-03-29T00:10:41.336Z,4.32
2023-03-29T00:11:41.356Z,4.33
2023-03-29T00:12:41.311Z,4.44
2023-03-29T00:13:41.304Z,4.33
2023-03-29T00:14:41.288Z,4.26
2023-03-29T00:15:41.286Z,4.34
2023-03-29T00:16:41.338Z,4.26
2023-03-29T00:17:41.307Z,4.42
2023-03-29T00:18:41.257Z,4.36
2023-03-29T00:19:41.240Z,4.36
2023-03-29T00:20:41.234Z,4.37
2023-03-29T00:21:41.267Z,4.36
2023-03-29T00:22:41.227Z,4.39
2023-03-29T00:23:41.191Z,4.50
2023-03-29T00:24:41.187Z,4.32
2023-03-29T00:25:41.164Z,4.50
2023-03-29T00:26:41.160Z,4.36
2023-03-29T00:27:41.167Z,4.50
2023-03-29T00:28:41.149Z,4.33
2023-03-29T00:29:41.146Z,4.32
2023-03-29T00:30:41.122Z,4.26
2023-03-29T00:31:41.147Z,4.32
2023-03-29T00:32:41.176Z,4.40
2023-03-29T00:33:41.087Z,4.37
2023-03-29T00:34:41.084Z,4.43
2023-03-29T00:35:41.075Z,4.32
2023-03-29T00:36:41.060Z,4.32
2023-03-29T00:37:41.089Z,4.36
2023-03-29T00:38:41.059Z,4.25
2023-03-29T00:39:41.031Z,4.36
2023-03-29T00:40:41.023Z,4.36
2023-03-29T00:41:41.007Z,4.36
2023-03-29T00:42:41.049Z,4.25
2023-03-29T00:43:40.994Z,4.33
2023-03-29T00:44:40.974Z,4.25
2023-03-29T00:45:40.971Z,4.24
2023-03-29T00:46:40.985Z,4.33
2023-03-29T00:47:41.068Z,4.32
2023-03-29T00:48:40.946Z,4.40
2023-03-29T00:49:40.932Z,4.25
2023-03-29T00:50:40.922Z,4.22
2023-03-29T00:51:40.923Z,4.32
2023-03-29T00:52:40.940Z,4.32
2023-03-29T00:53:40.890Z,4.36
2023-03-29T00:54:40.877Z,4.34
2023-03-29T00:55:40.860Z,4.28
2023-03-29T00:56:40.932Z,4.19
2023-03-29T00:57:40.858Z,4.24
2023-03-29T00:58:40.839Z,4.32
2023-03-29T00:59:40.821Z,4.32
2023-03-29T01:00:40.805Z,4.28
2023-03-29T01:01:40.848Z,4.14
2023-03-29T01:02:40.906Z,4.28
2023-03-29T01:03:40.873Z,4.36
2023-03-29T01:04:40.769Z,4.33
2023-03-29T01:05:40.762Z,4.28
2023-03-29T01:06:40.797Z,4.14
2023-03-29T01:07:40.758Z,4.22
2023-03-29T01:08:40.722Z,4.25
2023-03-29T01:09:40.718Z,4.26
2023-03-29T01:10:40.721Z,4.16
2023-03-29T01:11:40.751Z,4.07
2023-03-29T01:12:40.718Z,4.04
2023-03-29T01:13:40.682Z,4.04
2023-03-29T01:14:40.662Z,4.10
2023-03-29T01:15:40.654Z,4.16
2023-03-29T01:16:40.698Z,4.10
2023-03-29T01:17:40.704Z,4.21
2023-03-29T01:18:40.623Z,4.06
2023-03-29T01:19:40.626Z,4.12
2023-03-29T01:20:40.602Z,4.18
2023-03-29T01:21:40.592Z,4.18
2023-03-29T01:22:40.635Z,4.07
2023-03-29T01:23:40.574Z,4.10
2023-03-29T01:24:40.558Z,4.15
2023-03-29T01:25:40.550Z,4.15
2023-03-29T01:26:40.562Z,4.16
2023-03-29T01:27:40.544Z,4.14
2023-03-29T01:28:40.526Z,4.15
2023-03-29T01:29:40.521Z,4.08
2023-03-29T01:30:40.497Z,4.10
2023-03-29T01:31:40.546Z,4.18
2023-03-29T01:32:40.635Z,4.03
2023-03-29T01:33:40.464Z,4.08
2023-03-29T01:34:40.521Z,4.00
2023-03-29T01:35:40.452Z,4.08
2023-03-29T01:36:40.430Z,4.04
2023-03-29T01:37:40.517Z,4.12
2023-03-29T01:38:40.425Z,4.08
2023-03-29T01:39:40.397Z,4.04
2023-03-29T01:40:40.394Z,3.92
2023-03-29T01:41:40.379Z,4.10
2023-03-29T01:42:40.458Z,4.07
2023-03-29T01:43:40.362Z,4.15
2023-03-29T01:44:40.353Z,4.01
2023-03-29T01:45:40.338Z,4.03
2023-03-29T01:46:40.341Z,4.07
2023-03-29T01:47:40.412Z,4.10
2023-03-29T01:48:40.320Z,4.14
2023-03-29T01:49:40.294Z,4.14
2023-03-29T01:50:40.288Z,4.15
2023-03-29T01:51:40.273Z,4.03
2023-03-29T01:52:40.310Z,4.04
2023-03-29T01:53:40.256Z,4.00
2023-03-29T01:54:40.240Z,4.18
2023-03-29T01:55:40.228Z,4.07
2023-03-29T01:56:40.294Z,4.03
2023-03-29T01:57:40.221Z,3.96
2023-03-29T01:58:40.194Z,4.15
2023-03-29T01:59:40.174Z,4.03
2023-03-29T02:00:41.183Z,4.10
2023-03-29T02:01:40.247Z,4.01
2023-03-29T02:02:40.314Z,4.06
2023-03-29T02:03:40.172Z,4.00
2023-03-29T02:04:40.132Z,4.19
2023-03-29T02:05:40.135Z,4.07
2023-03-29T02:06:40.115Z,4.01
2023-03-29T02:07:40.131Z,4.10
2023-03-29T02:08:40.096Z,4.08
2023-03-29T02:09:40.086Z,4.10
2023-03-29T02:10:40.099Z,4.18
2023-03-29T02:11:40.063Z,4.15
2023-03-29T02:12:40.085Z,4.14
2023-03-29T02:13:40.035Z,4.12
2023-03-29T02:14:40.039Z,4.21
2023-03-29T02:15:40.068Z,4.16
2023-03-29T02:16:40.014Z,4.19
2023-03-29T02:17:40.140Z,4.16
2023-03-29T02:18:40.000Z,4.28
2023-03-29T02:19:39.980Z,4.19
2023-03-29T02:20:39.965Z,4.28
2023-03-29T02:21:39.967Z,4.16
2023-03-29T02:22:39.976Z,4.19
2023-03-29T02:23:39.937Z,4.28
2023-03-29T02:24:39.944Z,4.29
2023-03-29T02:25:39.953Z,4.10
2023-03-29T02:26:39.905Z,4.19
2023-03-29T02:27:39.927Z,4.04
2023-03-29T02:28:39.880Z,4.26
2023-03-29T02:29:39.872Z,4.14
2023-03-29T02:30:39.870Z,4.21
2023-03-29T02:31:39.911Z,4.08
2023-03-29T02:32:39.952Z,4.15
2023-03-29T02:33:39.835Z,4.04
2023-03-29T02:34:39.825Z,4.04
2023-03-29T02:35:39.855Z,4.08
2023-03-29T02:36:39.807Z,4.01
2023-03-29T02:37:39.811Z,4.03
2023-03-29T02:38:39.792Z,4.01
2023-03-29T02:39:39.789Z,4.07
2023-03-29T02:40:39.777Z,4.12
2023-03-29T02:41:39.758Z,4.04
2023-03-29T02:42:39.735Z,4.03
2023-03-29T02:43:39.739Z,4.07
2023-03-29T02:44:39.765Z,4.01
2023-03-29T02:45:39.750Z,4.14
2023-03-29T02:46:39.725Z,4.01
2023-03-29T02:47:39.730Z,4.14
2023-03-29T02:48:39.699Z,4.15
2023-03-29T02:49:39.681Z,4.04
2023-03-29T02:50:39.669Z,3.98
2023-03-29T02:51:39.649Z,4.07
2023-03-29T02:52:39.635Z,4.01
2023-03-29T02:53:39.649Z,3.98
2023-03-29T02:54:39.623Z,4.12
2023-03-29T02:55:39.614Z,4.14
2023-03-29T02:56:39.646Z,4.10
2023-03-29T02:57:39.603Z,4.10
2023-03-29T02:58:39.612Z,4.04
2023-03-29T02:59:39.568Z,3.97
2023-03-29T03:00:39.576Z,3.98
2023-03-29T03:01:39.574Z,3.98
2023-03-29T03:02:39.601Z,3.97
2023-03-29T03:03:39.718Z,4.00
2023-03-29T03:04:39.525Z,4.01
2023-03-29T03:05:39.530Z,4.06
2023-03-29T03:06:39.515Z,3.98
2023-03-29T03:07:39.495Z,4.01
2023-03-29T03:08:39.504Z,3.96
2023-03-29T03:09:39.472Z,4.04
2023-03-29T03:10:39.463Z,4.00
2023-03-29T03:11:39.460Z,3.94
2023-03-29T03:12:39.458Z,4.03
2023-03-29T03:13:39.465Z,3.97
2023-03-29T03:14:39.439Z,3.94
2023-03-29T03:15:39.429Z,3.94
2023-03-29T03:16:39.453Z,4.01
2023-03-29T03:17:39.396Z,3.98
2023-03-29T03:18:39.411Z,3.94
2023-03-29T03:19:39.391Z,3.96
2023-03-29T03:20:39.371Z,4.00
2023-03-29T03:21:39.377Z,4.08
2023-03-29T03:22:39.346Z,3.97
2023-03-29T03:23:39.354Z,4.00
2023-03-29T03:24:39.326Z,3.98
2023-03-29T03:25:39.316Z,4.03
2023-03-29T03:26:39.310Z,3.94
2023-03-29T03:27:39.291Z,3.97
2023-03-29T03:28:39.291Z,3.98
2023-03-29T03:29:39.273Z,3.94
2023-03-29T03:30:39.266Z,4.00
2023-03-29T03:31:39.298Z,4.00
2023-03-29T03:32:39.289Z,3.92
2023-03-29T03:33:39.245Z,4.06
2023-03-29T03:34:39.230Z,3.97
2023-03-29T03:35:39.290Z,4.01
2023-03-29T03:36:39.194Z,4.03
2023-03-29T03:37:39.213Z,4.10
2023-03-29T03:38:39.197Z,4.01
2023-03-29T03:39:39.177Z,3.98
2023-03-29T03:40:39.165Z,4.03
2023-03-29T03:41:39.151Z,3.96
2023-03-29T03:42:39.149Z,4.04
2023-03-29T03:43:39.152Z,4.06
2023-03-29T03:44:39.112Z,4.06
2023-03-29T03:45:39.125Z,4.01
2023-03-29T03:46:39.103Z,4.06
2023-03-29T03:47:39.167Z,4.04
2023-03-29T03:48:39.099Z,4.03
2023-03-29T03:49:39.066Z,4.00
2023-03-29T03:50:39.058Z,4.06
2023-03-29T03:51:39.050Z,4.07
2023-03-29T03:52:39.052Z,4.08
2023-03-29T03:53:39.056Z,4.03
2023-03-29T03:54:39.028Z,4.16
2023-03-29T03:55:40.010Z,4.03
2023-03-29T03:56:39.036Z,4.06
2023-03-29T03:57:38.993Z,4.04
2023-03-29T03:58:39.010Z,4.04
2023-03-29T03:59:38.984Z,4.19
2023-03-29T04:00:38.954Z,4.03
2023-03-29T04:01:39.946Z,4.00
2023-03-29T04:02:39.062Z,4.12
2023-03-29T04:03:39.009Z,4.03
2023-03-29T04:04:38.924Z,4.14
2023-03-29T04:05:38.925Z,4.19
2023-03-29T04:06:39.828Z,4.14
2023-03-29T04:07:38.912Z,4.03
2023-03-29T04:08:38.934Z,4.06
2023-03-29T04:09:38.881Z,4.14
2023-03-29T04:10:38.887Z,3.98
2023-03-29T04:11:38.856Z,4.06
2023-03-29T04:12:38.859Z,4.03
2023-03-29T04:13:38.840Z,4.07
2023-03-29T04:14:38.832Z,4.14
2023-03-29T04:15:38.886Z,4.15
2023-03-29T04:16:38.811Z,4.00
2023-03-29T04:17:39.050Z,4.07
2023-03-29T04:18:38.893Z,4.18
2023-03-29T04:19:38.775Z,4.10
2023-03-29T04:20:38.769Z,4.21
2023-03-29T04:21:38.762Z,4.12
2023-03-29T04:22:38.746Z,4.21
2023-03-29T04:23:38.768Z,4.12
2023-03-29T04:24:38.747Z,4.10
2023-03-29T04:25:38.726Z,4.07
2023-03-29T04:26:38.709Z,4.06
2023-03-29T04:27:38.728Z,4.07
2023-03-29T04:28:38.754Z,4.04
2023-03-29T04:29:38.679Z,4.08
2023-03-29T04:30:38.682Z,4.10
2023-03-29T04:31:38.726Z,4.10
2023-03-29T04:32:38.667Z,4.01
2023-03-29T04:33:38.672Z,4.03
2023-03-29T04:34:38.625Z,4.00
2023-03-29T04:35:38.667Z,4.03
2023-03-29T04:36:38.606Z,4.00
2023-03-29T04:38:10.531Z,4.10
2023-03-29T04:38:38.585Z,4.12
2023-03-29T04:39:38.583Z,4.01
2023-03-29T04:40:38.583Z,4.14
2023-03-29T04:41:38.575Z,4.21
2023-03-29T04:42:38.543Z,4.08
2023-03-29T04:43:40.340Z,4.04
2023-03-29T04:44:39.592Z,4.10
2023-03-29T04:45:38.526Z,4.07
2023-03-29T04:46:38.573Z,4.01
2023-03-29T04:47:38.515Z,4.07
2023-03-29T04:48:38.517Z,4.00
2023-03-29T04:49:38.506Z,4.14
2023-03-29T04:50:38.480Z,4.03
2023-03-29T04:51:38.473Z,4.07
2023-03-29T04:52:38.453Z,4.14
2023-03-29T04:53:38.466Z,4.08
2023-03-29T04:54:38.435Z,4.19
2023-03-29T04:55:38.433Z,4.15
2023-03-29T04:56:38.458Z,4.16
2023-03-29T04:57:38.409Z,4.22
2023-03-29T04:58:38.427Z,4.22
2023-03-29T04:59:38.397Z,4.24
2023-03-29T05:00:38.391Z,4.19
2023-03-29T05:01:38.413Z,4.19
2023-03-29T05:02:38.413Z,4.18
2023-03-29T05:03:38.377Z,4.19
2023-03-29T05:04:38.372Z,4.19
2023-03-29T05:05:38.331Z,4.28
2023-03-29T05:06:38.320Z,4.26
2023-03-29T05:07:38.309Z,4.10
2023-03-29T05:08:38.338Z,4.15
2023-03-29T05:09:38.307Z,4.08
2023-03-29T05:10:38.290Z,4.08
2023-03-29T05:11:38.316Z,4.26
2023-03-29T05:12:38.251Z,4.28
2023-03-29T05:13:38.272Z,4.19
2023-03-29T05:14:38.242Z,4.29
2023-03-29T05:15:40.192Z,4.24
2023-03-29T05:16:38.309Z,4.26
2023-03-29T05:17:38.238Z,4.28
2023-03-29T05:18:38.212Z,4.40
2023-03-29T05:19:38.189Z,4.36
2023-03-29T05:20:38.174Z,4.43
2023-03-29T05:21:38.188Z,4.37
2023-03-29T05:22:38.164Z,4.32
2023-03-29T05:23:38.176Z,4.34
2023-03-29T05:24:38.139Z,4.32
2023-03-29T05:25:38.136Z,4.24
2023-03-29T05:26:38.118Z,4.37
2023-03-29T05:27:38.109Z,4.44
2023-03-29T05:28:38.136Z,4.40
2023-03-29T05:29:38.100Z,4.39
2023-03-29T05:30:38.079Z,4.28
2023-03-29T05:31:38.145Z,4.40
2023-03-29T05:32:38.059Z,4.33
2023-03-29T05:33:38.065Z,4.39
2023-03-29T05:34:38.047Z,4.44
2023-03-29T05:35:38.042Z,4.44
2023-03-29T05:36:37.992Z,4.44
2023-03-29T05:37:39.048Z,4.47
2023-03-29T05:38:38.013Z,4.46
2023-03-29T05:39:38.010Z,4.54
2023-03-29T05:40:37.971Z,4.50
2023-03-29T05:41:37.990Z,4.61
2023-03-29T05:42:38.004Z,4.46
2023-03-29T05:43:37.955Z,4.50
2023-03-29T05:44:37.923Z,4.62
2023-03-29T05:45:37.960Z,4.44
2023-03-29T05:46:37.903Z,4.64
2023-03-29T05:47:37.988Z,4.62
2023-03-29T05:48:37.902Z,4.67
2023-03-29T05:49:37.878Z,4.65
2023-03-29T05:50:37.858Z,4.62
2023-03-29T05:51:37.851Z,4.67
2023-03-29T05:52:37.838Z,4.65
2023-03-29T05:53:37.856Z,4.77
2023-03-29T05:54:37.813Z,4.70
2023-03-29T05:55:37.813Z,4.77
2023-03-29T05:56:37.858Z,4.67
2023-03-29T05:57:37.794Z,4.80
2023-03-29T05:58:37.818Z,4.72
2023-03-29T05:59:37.761Z,4.72
2023-03-29T06:00:37.745Z,4.84
2023-03-29T06:01:37.743Z,4.91
2023-03-29T06:02:37.820Z,4.84
2023-03-29T06:03:37.910Z,4.84
2023-03-29T06:04:37.897Z,4.89
2023-03-29T06:05:37.697Z,4.86
2023-03-29T06:06:37.713Z,4.89
2023-03-29T06:07:37.679Z,4.91
2023-03-29T06:08:37.701Z,4.98
2023-03-29T06:09:37.681Z,4.91
2023-03-29T06:10:37.678Z,4.91
2023-03-29T06:11:37.627Z,4.79
2023-03-29T06:12:37.622Z,4.76
2023-03-29T06:13:37.621Z,5.02
2023-03-29T06:14:37.624Z,4.84
2023-03-29T06:15:37.606Z,4.92
2023-03-29T06:16:37.680Z,4.88
2023-03-29T06:17:37.607Z,4.80
2023-03-29T06:18:37.555Z,4.77
2023-03-29T06:19:37.561Z,4.84
2023-03-29T06:20:37.558Z,4.83
2023-03-29T06:21:37.520Z,4.86
2023-03-29T06:22:37.513Z,4.88
2023-03-29T06:23:37.539Z,4.76
2023-03-29T06:24:37.514Z,4.98
2023-03-29T06:25:37.484Z,4.89
2023-03-29T06:26:37.474Z,4.98
2023-03-29T06:27:37.464Z,4.94
2023-03-29T06:28:37.450Z,4.92
2023-03-29T06:29:37.473Z,4.94
2023-03-29T06:30:37.445Z,4.80
2023-03-29T06:31:37.481Z,5.01
2023-03-29T06:32:37.492Z,5.05
2023-03-29T06:33:37.390Z,5.07
2023-03-29T06:34:38.562Z,5.10
2023-03-29T06:35:37.417Z,5.14
2023-03-29T06:36:37.370Z,5.22
2023-03-29T06:37:37.361Z,5.30
2023-03-29T06:38:37.351Z,5.31
2023-03-29T06:39:37.353Z,5.35
2023-03-29T06:40:37.329Z,5.30
2023-03-29T06:41:37.310Z,5.31
2023-03-29T06:42:37.293Z,5.32
2023-03-29T06:43:37.288Z,5.46
2023-03-29T06:44:37.290Z,5.48
2023-03-29T06:45:37.305Z,5.49
2023-03-29T06:46:37.341Z,5.64
2023-03-29T06:47:37.340Z,5.60
2023-03-29T06:48:37.235Z,5.68
2023-03-29T06:49:37.479Z,5.67
2023-03-29T06:50:37.228Z,5.71
2023-03-29T06:51:37.203Z,5.75
2023-03-29T06:52:37.186Z,5.75
2023-03-29T06:53:37.179Z,5.73
2023-03-29T06:54:37.181Z,5.78
2023-03-29T06:55:37.163Z,5.95
2023-03-29T06:56:37.139Z,5.85
2023-03-29T06:57:37.137Z,5.88
2023-03-29T06:58:37.135Z,5.74
2023-03-29T06:59:37.142Z,5.88
2023-03-29T07:00:37.100Z,5.91
2023-03-29T07:01:37.114Z,5.89
2023-03-29T07:02:37.087Z,5.81
2023-03-29T07:03:37.070Z,5.93
2023-03-29T07:04:37.094Z,5.96
2023-03-29T07:05:37.043Z,6.00
2023-03-29T07:06:37.046Z,5.98
2023-03-29T07:07:37.020Z,6.00
2023-03-29T07:08:37.014Z,6.04
2023-03-29T07:09:37.015Z,6.09
2023-03-29T07:10:36.998Z,6.14
2023-03-29T07:11:37.020Z,6.10
2023-03-29T07:12:36.968Z,6.21
2023-03-29T07:13:36.952Z,6.14
2023-03-29T07:14:36.979Z,6.19
2023-03-29T07:15:37.056Z,6.22
2023-03-29T07:16:37.130Z,6.29
2023-03-29T07:17:36.984Z,6.33
2023-03-29T07:18:36.921Z,6.28
2023-03-29T07:19:36.891Z,6.29
2023-03-29T07:20:36.885Z,6.32
2023-03-29T07:21:38.035Z,6.54
2023-03-29T07:22:37.883Z,6.48
2023-03-29T07:23:36.858Z,6.38
2023-03-29T07:24:36.869Z,6.53
2023-03-29T07:25:36.840Z,6.47
2023-03-29T07:26:36.824Z,6.48
2023-03-29T07:27:36.822Z,6.43
2023-03-29T07:28:36.812Z,6.54
2023-03-29T07:29:36.809Z,6.44
2023-03-29T07:30:36.793Z,6.41
2023-03-29T07:31:36.776Z,6.54
2023-03-29T07:32:36.839Z,6.48
2023-03-29T07:33:36.917Z,6.59
2023-03-29T07:34:36.771Z,6.59
2023-03-29T07:35:36.746Z,6.56
2023-03-29T07:36:36.825Z,6.51
2023-03-29T07:37:36.710Z,6.63
2023-03-29T07:38:36.709Z,6.62
2023-03-29T07:39:36.711Z,6.59
2023-03-29T07:40:36.681Z,6.68
2023-03-29T07:41:36.669Z,6.66
2023-03-29T07:42:36.665Z,6.73
2023-03-29T07:43:36.653Z,6.80
2023-03-29T07:44:36.659Z,6.87
2023-03-29T07:45:36.729Z,6.95
2023-03-29T07:46:36.624Z,6.98
2023-03-29T07:47:36.643Z,7.01
2023-03-29T07:48:36.604Z,7.05
2023-03-29T07:49:36.609Z,6.97
2023-03-29T07:50:36.592Z,7.15
2023-03-29T07:51:36.629Z,7.01
2023-03-29T07:52:36.571Z,7.13
2023-03-29T07:53:36.559Z,6.98
2023-03-29T07:54:36.559Z,7.09
2023-03-29T07:55:36.531Z,7.15
2023-03-29T07:56:36.551Z,7.13
2023-03-29T07:57:36.510Z,7.16
2023-03-29T07:58:37.506Z,7.16
2023-03-29T07:59:36.503Z,7.17
2023-03-29T08:00:36.517Z,7.26
2023-03-29T08:01:37.450Z,7.19
2023-03-29T08:02:36.513Z,7.19
2023-03-29T08:03:36.509Z,7.22
2023-03-29T08:04:36.489Z,7.17
2023-03-29T08:05:41.185Z,7.32
2023-03-29T08:06:38.423Z,7.35
2023-03-29T08:07:36.416Z,7.45
2023-03-29T08:08:36.414Z,7.35
2023-03-29T08:09:36.410Z,7.47
2023-03-29T08:10:36.398Z,7.56
2023-03-29T08:11:36.378Z,7.50
2023-03-29T08:12:36.378Z,7.50
2023-03-29T08:13:36.352Z,7.53
2023-03-29T08:14:36.356Z,7.52
2023-03-29T08:15:36.337Z,7.67
2023-03-29T08:16:36.343Z,7.50
2023-03-29T08:17:37.336Z,7.66
2023-03-29T08:18:36.312Z,7.58
2023-03-29T08:19:36.316Z,7.60
2023-03-29T08:20:36.305Z,7.71
2023-03-29T08:21:36.280Z,7.63
2023-03-29T08:22:36.262Z,7.79
2023-03-29T08:23:37.259Z,7.74
2023-03-29T08:24:36.277Z,7.81
2023-03-29T08:25:36.273Z,7.84
2023-03-29T08:26:36.232Z,7.84
2023-03-29T08:27:36.243Z,7.82
2023-03-29T08:28:36.225Z,7.97
2023-03-29T08:29:36.204Z,7.94
2023-03-29T08:30:36.194Z,7.94
2023-03-29T08:31:36.287Z,7.96
2023-03-29T08:32:36.228Z,7.97
2023-03-29T08:33:36.172Z,7.99
2023-03-29T08:34:36.154Z,8.02
2023-03-29T08:35:36.215Z,8.04
2023-03-29T08:36:36.132Z,7.99
2023-03-29T08:37:36.141Z,7.96
2023-03-29T08:38:36.121Z,7.87
2023-03-29T08:39:36.119Z,7.94
2023-03-29T08:40:36.127Z,7.93
2023-03-29T08:41:36.096Z,7.92
2023-03-29T08:42:37.079Z,7.89
2023-03-29T08:43:36.069Z,7.93
2023-03-29T08:44:36.064Z,8.03
2023-03-29T08:45:36.068Z,8.12
2023-03-29T08:46:36.051Z,8.20
2023-03-29T08:47:36.040Z,8.15
2023-03-29T08:48:36.040Z,8.11
2023-03-29T08:49:36.016Z,8.22
2023-03-29T08:50:36.019Z,8.33
2023-03-29T08:51:36.002Z,8.28
2023-03-29T08:52:35.986Z,8.29
2023-03-29T08:53:35.984Z,8.29
2023-03-29T08:54:35.953Z,8.37
2023-03-29T08:55:35.978Z,8.45
2023-03-29T08:56:35.939Z,8.51
2023-03-29T08:57:35.921Z,8.47
2023-03-29T08:58:35.929Z,8.51
2023-03-29T08:59:35.909Z,8.63
2023-03-29T09:00:35.925Z,8.63
2023-03-29T09:01:35.937Z,8.65
2023-03-29T09:02:35.998Z,8.76
2023-03-29T09:03:35.960Z,8.72
2023-03-29T09:04:35.855Z,8.86
2023-03-29T09:05:35.874Z,8.81
2023-03-29T09:06:35.850Z,8.78
2023-03-29T09:07:35.839Z,8.99
2023-03-29T09:08:35.829Z,8.97
2023-03-29T09:09:35.815Z,8.90
2023-03-29T09:10:35.827Z,8.90
2023-03-29T09:11:35.792Z,8.87
2023-03-29T09:12:36.689Z,8.79
2023-03-29T09:13:36.773Z,9.05
2023-03-29T09:14:35.766Z,8.94
2023-03-29T09:15:35.800Z,9.15
2023-03-29T09:16:35.795Z,8.99
2023-03-29T09:17:35.783Z,8.87
2023-03-29T09:18:35.740Z,8.97
2023-03-29T09:19:35.714Z,8.93
2023-03-29T09:20:35.722Z,8.96
2023-03-29T09:21:35.692Z,9.20
2023-03-29T09:22:35.686Z,9.31
2023-03-29T09:23:35.675Z,9.58
2023-03-29T09:24:35.660Z,9.50
2023-03-29T09:25:44.043Z,9.64
2023-03-29T09:26:37.674Z,9.57
2023-03-29T09:27:35.632Z,9.60
2023-03-29T09:28:35.634Z,9.61
2023-03-29T09:29:35.626Z,9.53
2023-03-29T09:30:35.628Z,9.57
2023-03-29T09:31:35.652Z,9.46
2023-03-29T09:32:35.674Z,9.56
2023-03-29T09:33:35.575Z,9.46
2023-03-29T09:34:35.560Z,9.57
2023-03-29T09:35:35.668Z,9.52
2023-03-29T09:36:35.537Z,9.53
2023-03-29T09:37:35.528Z,9.61
2023-03-29T09:38:35.517Z,9.61
2023-03-29T09:39:35.505Z,9.60
2023-03-29T09:40:35.534Z,9.60
2023-03-29T09:41:35.489Z,9.56
2023-03-29T09:42:35.486Z,9.53
2023-03-29T09:43:35.468Z,9.66
2023-03-29T09:44:35.461Z,9.75
2023-03-29T09:45:35.494Z,9.81
2023-03-29T09:46:35.438Z,10.03
2023-03-29T09:47:35.444Z,10.19
2023-03-29T09:48:35.435Z,10.24
2023-03-29T09:49:35.412Z,10.30
2023-03-29T09:50:35.423Z,10.18
2023-03-29T09:51:35.410Z,10.22
2023-03-29T09:52:35.378Z,10.09
2023-03-29T09:53:35.377Z,10.18
2023-03-29T09:54:35.362Z,10.12
2023-03-29T09:55:35.380Z,10.15
2023-03-29T09:56:35.341Z,10.06
2023-03-29T09:57:35.336Z,10.00
2023-03-29T09:58:35.320Z,10.19
2023-03-29T09:59:35.308Z,10.26
2023-03-29T10:00:35.319Z,10.09
2023-03-29T10:01:35.392Z,10.03
2023-03-29T10:02:35.308Z,10.14
2023-03-29T10:03:35.279Z,10.01
2023-03-29T10:04:35.327Z,9.99
2023-03-29T10:05:35.293Z,10.14
2023-03-29T10:06:35.235Z,10.15
2023-03-29T10:07:36.240Z,10.22
2023-03-29T10:08:35.214Z,10.36
2023-03-29T10:09:35.237Z,10.43
2023-03-29T10:10:35.227Z,10.47
2023-03-29T10:11:35.182Z,10.42
2023-03-29T10:12:35.176Z,10.42
2023-03-29T10:13:35.175Z,10.28
2023-03-29T10:14:35.156Z,10.26
2023-03-29T10:15:35.175Z,10.40
2023-03-29T10:16:35.184Z,10.47
2023-03-29T10:17:35.177Z,10.53
2023-03-29T10:18:35.110Z,10.60
2023-03-29T10:19:36.107Z,10.63
2023-03-29T10:20:35.139Z,10.59
2023-03-29T10:21:35.092Z,10.74
2023-03-29T10:22:35.071Z,10.60
2023-03-29T10:23:35.071Z,10.60
2023-03-29T10:24:35.060Z,10.71
2023-03-29T10:25:35.067Z,10.60
2023-03-29T10:26:35.039Z,10.66
2023-03-29T10:27:35.040Z,10.62
2023-03-29T10:28:35.025Z,10.63
2023-03-29T10:29:35.041Z,10.58
2023-03-29T10:30:35.050Z,10.71
2023-03-29T10:31:35.038Z,10.88
2023-03-29T10:32:35.056Z,10.81
2023-03-29T10:33:34.968Z,10.76
2023-03-29T10:34:34.960Z,10.78
2023-03-29T10:35:35.003Z,10.80
2023-03-29T10:36:34.943Z,11.07
2023-03-29T10:38:46.935Z,10.94
2023-03-29T10:39:46.940Z,10.89
2023-03-29T10:40:46.985Z,10.95
2023-03-29T10:41:46.922Z,10.88
2023-03-29T10:42:46.919Z,10.91
2023-03-29T10:43:48.029Z,10.98
2023-03-29T10:44:48.014Z,10.99
2023-03-29T10:45:48.063Z,11.01
2023-03-29T10:46:47.998Z,10.92
2023-03-29T10:47:48.011Z,10.92
2023-03-29T10:48:47.978Z,10.83
2023-03-29T10:49:48.097Z,10.84
2023-03-29T10:50:48.009Z,10.76
2023-03-29T10:51:47.945Z,10.77
2023-03-29T10:52:47.939Z,10.84
2023-03-29T10:53:47.929Z,10.89
2023-03-29T10:54:47.912Z,10.86
2023-03-29T10:55:47.938Z,10.84
2023-03-29T10:56:47.917Z,10.77
2023-03-29T10:57:47.887Z,10.76
2023-03-29T10:58:47.880Z,10.77
2023-03-29T10:59:47.870Z,10.88
2023-03-29T11:00:47.883Z,10.96
2023-03-29T11:01:47.884Z,10.95
2023-03-29T11:02:47.968Z,10.98
2023-03-29T11:03:47.917Z,11.13
2023-03-29T11:04:47.828Z,11.28
2023-03-29T11:05:48.848Z,11.21
2023-03-29T11:06:47.814Z,11.16
2023-03-29T11:07:47.794Z,11.02
2023-03-29T11:08:47.788Z,11.10
2023-03-29T11:09:47.778Z,11.16
2023-03-29T11:10:47.768Z,11.20
2023-03-29T11:11:47.747Z,11.09
2023-03-29T11:12:47.738Z,11.31
2023-03-29T11:13:47.722Z,11.25
2023-03-29T11:14:47.724Z,11.17
2023-03-29T11:15:47.787Z,11.21
2023-03-29T11:16:47.717Z,11.32
2023-03-29T11:17:47.761Z,11.31
2023-03-29T11:18:47.685Z,11.46
2023-03-29T11:19:47.684Z,11.61
2023-03-29T11:20:47.689Z,11.47
2023-03-29T11:21:47.655Z,11.62
2023-03-29T11:22:47.634Z,11.65
2023-03-29T11:23:47.629Z,11.52
2023-03-29T11:24:47.637Z,11.68
2023-03-29T11:25:47.597Z,11.65
2023-03-29T11:26:47.616Z,11.38
2023-03-29T11:27:47.585Z,11.41
2023-03-29T11:28:47.576Z,11.50
2023-03-29T11:29:47.575Z,11.53
2023-03-29T11:30:47.736Z,11.47
2023-03-29T11:31:47.613Z,11.46
2023-03-29T11:32:47.600Z,11.62
2023-03-29T11:33:47.538Z,11.61
2023-03-29T11:34:47.522Z,11.71
2023-03-29T11:35:47.572Z,11.86
2023-03-29T11:36:47.544Z,11.94
2023-03-29T11:37:47.548Z,11.87
2023-03-29T11:38:47.476Z,11.85
2023-03-29T11:39:47.474Z,11.82
2023-03-29T11:40:47.523Z,11.82
2023-03-29T11:41:47.501Z,11.86
2023-03-29T11:42:47.493Z,11.93
2023-03-29T11:43:47.479Z,12.08
2023-03-29T11:44:47.463Z,12.15
2023-03-29T11:45:47.469Z,12.31
2023-03-29T11:46:47.570Z,12.29
2023-03-29T11:47:47.465Z,12.54
2023-03-29T11:48:47.492Z,12.52
2023-03-29T11:49:47.452Z,12.48
2023-03-29T11:50:47.371Z,12.69
2023-03-29T11:51:47.453Z,12.48
2023-03-29T11:52:47.337Z,12.42
2023-03-29T11:53:47.339Z,12.41
2023-03-29T11:54:47.319Z,12.46
2023-03-29T11:55:47.334Z,12.29
2023-03-29T11:56:47.396Z,12.51
2023-03-29T11:57:47.288Z,12.46
2023-03-29T11:58:47.285Z,12.31
2023-03-29T11:59:47.280Z,12.30
2023-03-29T12:00:47.264Z,12.30
2023-03-29T12:01:47.332Z,12.52
2023-03-29T12:02:47.609Z,12.51
2023-03-29T12:03:47.461Z,12.57
2023-03-29T12:04:47.245Z,12.71
2023-03-29T12:05:47.212Z,12.57
2023-03-29T12:06:47.273Z,12.63
2023-03-29T12:07:47.196Z,12.70
2023-03-29T12:08:47.186Z,13.00
2023-03-29T12:09:47.183Z,13.07
2023-03-29T12:10:47.162Z,13.14
2023-03-29T12:11:47.205Z,13.21
2023-03-29T12:12:47.152Z,13.30
2023-03-29T12:13:47.149Z,13.46
2023-03-29T12:14:47.131Z,13.51
2023-03-29T12:15:47.108Z,13.59
2023-03-29T12:16:47.146Z,13.70
2023-03-29T12:17:47.140Z,13.87
2023-03-29T12:18:47.092Z,13.89
2023-03-29T12:19:47.076Z,13.76
2023-03-29T12:20:47.065Z,13.81
2023-03-29T12:21:47.085Z,13.84
2023-03-29T12:22:47.044Z,13.76
2023-03-29T12:23:47.031Z,13.63
2023-03-29T12:24:47.036Z,13.55
2023-03-29T12:25:47.014Z,13.56
2023-03-29T12:26:47.069Z,13.58
2023-03-29T12:27:46.991Z,13.49
2023-03-29T12:28:46.982Z,13.36
2023-03-29T12:29:46.983Z,13.32
2023-03-29T12:30:46.974Z,13.38
2023-03-29T12:31:47.006Z,13.24
2023-03-29T12:32:46.976Z,13.24
2023-03-29T12:33:46.941Z,13.24
2023-03-29T12:34:46.936Z,13.07
2023-03-29T12:35:46.946Z,13.25
2023-03-29T12:36:46.952Z,13.33
2023-03-29T12:37:46.904Z,13.33
2023-03-29T12:38:46.892Z,13.65
2023-03-29T12:39:46.898Z,13.69
2023-03-29T12:40:46.862Z,13.65
2023-03-29T12:41:46.877Z,13.63
2023-03-29T12:42:46.846Z,13.54
2023-03-29T12:43:46.852Z,13.74
2023-03-29T12:44:46.841Z,13.83
2023-03-29T12:45:46.863Z,13.94
2023-03-29T12:46:46.921Z,13.89
2023-03-29T12:47:46.846Z,13.65
2023-03-29T12:48:46.795Z,13.59
2023-03-29T12:49:46.775Z,13.52
2023-03-29T12:50:46.762Z,13.55
2023-03-29T12:51:46.776Z,13.29
2023-03-29T12:52:46.744Z,13.27
2023-03-29T12:53:46.746Z,13.49
2023-03-29T12:54:46.723Z,13.51
2023-03-29T12:55:47.712Z,13.67
2023-03-29T12:56:46.780Z,13.79
2023-03-29T12:57:46.695Z,13.88
2023-03-29T12:58:46.686Z,13.77
2023-03-29T12:59:46.680Z,13.83
2023-03-29T13:00:46.661Z,13.96
2023-03-29T13:01:46.748Z,13.80
2023-03-29T13:02:46.759Z,13.81
2023-03-29T13:03:46.633Z,13.74
2023-03-29T13:04:46.619Z,13.74
2023-03-29T13:05:46.632Z,13.58
2023-03-29T13:06:46.610Z,13.81
2023-03-29T13:07:47.706Z,13.89
2023-03-29T13:08:46.576Z,14.14
2023-03-29T13:09:46.583Z,14.34
2023-03-29T13:10:46.562Z,14.31
2023-03-29T13:11:46.570Z,14.39
2023-03-29T13:12:46.567Z,14.43